Map

Track Data

SID SEASON NUMBER BASIN SUBBASIN NAME ISO_TIME NATURE LAT LON WMO_WIND WMO_PRES WMO_AGENCY TRACK_TYPE DIST2LAND LANDFALL IFLAG USA_AGENCY USA_ATCF_ID USA_LAT USA_LON USA_RECORD USA_STATUS USA_WIND USA_PRES USA_SSHS USA_R34_NE USA_R34_SE USA_R34_SW USA_R34_NW USA_R50_NE USA_R50_SE USA_R50_SW USA_R50_NW USA_R64_NE USA_R64_SE USA_R64_SW USA_R64_NW USA_POCI USA_ROCI USA_RMW USA_EYE TOKYO_LAT TOKYO_LON TOKYO_GRADE TOKYO_WIND TOKYO_PRES TOKYO_R50_DIR TOKYO_R50_LONG TOKYO_R50_SHORT TOKYO_R30_DIR TOKYO_R30_LONG TOKYO_R30_SHORT TOKYO_LAND CMA_LAT CMA_LON CMA_CAT CMA_WIND CMA_PRES HKO_LAT HKO_LON HKO_CAT HKO_WIND HKO_PRES NEWDELHI_LAT NEWDELHI_LON NEWDELHI_GRADE NEWDELHI_WIND NEWDELHI_PRES NEWDELHI_CI NEWDELHI_DP NEWDELHI_POCI REUNION_LAT REUNION_LON REUNION_TYPE REUNION_WIND REUNION_PRES REUNION_TNUM REUNION_CI REUNION_RMW REUNION_R34_NE REUNION_R34_SE REUNION_R34_SW REUNION_R34_NW REUNION_R50_NE REUNION_R50_SE REUNION_R50_SW REUNION_R50_NW REUNION_R64_NE REUNION_R64_SE REUNION_R64_SW REUNION_R64_NW BOM_LAT BOM_LON BOM_TYPE BOM_WIND BOM_PRES BOM_TNUM BOM_CI BOM_RMW BOM_R34_NE BOM_R34_SE BOM_R34_SW BOM_R34_NW BOM_R50_NE BOM_R50_SE BOM_R50_SW BOM_R50_NW BOM_R64_NE BOM_R64_SE BOM_R64_SW BOM_R64_NW BOM_ROCI BOM_POCI BOM_EYE BOM_POS_METHOD BOM_PRES_METHOD NADI_LAT NADI_LON NADI_CAT NADI_WIND NADI_PRES WELLINGTON_LAT WELLINGTON_LON WELLINGTON_WIND WELLINGTON_PRES DS824_LAT DS824_LON DS824_STAGE DS824_WIND DS824_PRES TD9636_LAT TD9636_LON TD9636_STAGE TD9636_WIND TD9636_PRES TD9635_LAT TD9635_LON TD9635_WIND TD9635_PRES TD9635_ROCI NEUMANN_LAT NEUMANN_LON NEUMANN_CLASS NEUMANN_WIND NEUMANN_PRES MLC_LAT MLC_LON MLC_CLASS MLC_WIND MLC_PRES USA_GUST BOM_GUST BOM_GUST_PER REUNION_GUST REUNION_GUST_PER USA_SEAHGT USA_SEARAD_NE USA_SEARAD_SE USA_SEARAD_SW USA_SEARAD_NW STORM_SPEED STORM_DIR
1980010S20043 1980 7 SI MM NOT_NAMED 1980-01-10 06:00:00 NR -20.3000 42.7000 reunion main 136 83 _____O________ -1 -20.3000 42.7000 99 9.90000 13 90
1980010S20043 1980 7 SI MM NOT_NAMED 1980-01-10 09:00:00 NR -20.3002 43.3725 main 76 22 _____P________ -1 -20.3002 43.3725 99 13 90
1980010S20043 1980 7 SI MM NOT_NAMED 1980-01-10 12:00:00 NR -20.3000 44.1000 reunion main 22 0 _____O________ -1 -20.3000 44.1000 99 9.90000 14 90
1980010S20043 1980 7 SI MM NOT_NAMED 1980-01-10 15:00:00 NR -20.3001 44.9075 main 0 0 _____P________ -1 -20.3001 44.9075 99 15 90
1980010S20043 1980 7 SI MM NOT_NAMED 1980-01-10 18:00:00 NR -20.3000 45.7000 reunion main 0 0 _____O________ -1 -20.3000 45.7000 99 9.90000 14 90
1980010S20043 1980 7 SI MM NOT_NAMED 1980-01-10 21:00:00 NR -20.2996 46.3800 main 0 0 _____P________ -1 -20.2996 46.3800 99 12 90
1980010S20043 1980 7 SI MM NOT_NAMED 1980-01-11 00:00:00 NR -20.3000 47.0000 reunion main 0 0 _____O________ -1 -20.3000 47.0000 99 9.90000 12 90
1980010S20043 1980 7 SI MM NOT_NAMED 1980-01-11 03:00:00 NR -20.3000 47.6375 main 0 0 _____P________ -1 -20.3000 47.6375 99 11 90
1980010S20043 1980 7 SI MM NOT_NAMED 1980-01-11 06:00:00 NR -20.3000 48.2000 reunion main 0 0 _____O________ -1 -20.3000 48.2000 99 9.90000 9 90
1980010S20043 1980 7 SI MM NOT_NAMED 1980-01-11 09:00:00 NR -20.2997 48.6375 main 0 0 _____P________ -1 -20.2997 48.6375 99 8 90
1980010S20043 1980 7 SI MM NOT_NAMED 1980-01-11 12:00:00 NR -20.3000 49.0000 reunion main 33 33 _____O________ -1 -20.3000 49.0000 99 9.90000 7 90
1980010S20043 1980 7 SI MM NOT_NAMED 1980-01-11 15:00:00 NR -20.2999 49.3650 main 71 71 _____P________ -1 -20.2999 49.3650 99 7 90
1980010S20043 1980 7 SI MM NOT_NAMED 1980-01-11 18:00:00 NR -20.3000 49.7000 reunion main 99 99 _____O________ -1 -20.3000 49.7000 99 9.90000 6 90
1980010S20043 1980 7 SI MM NOT_NAMED 1980-01-11 21:00:00 NR -20.2999 50.0000 main 129 129 _____P________ -1 -20.2999 50.0000 99 6 90
1980010S20043 1980 7 SI MM NOT_NAMED 1980-01-12 00:00:00 NR -20.3000 50.3000 reunion main 160 160 _____O________ -1 -20.3000 50.3000 99 9.90000 6 93
1980010S20043 1980 7 SI MM NOT_NAMED 1980-01-12 03:00:00 NR -20.3298 50.6197 main 190 190 _____P________ -1 -20.3298 50.6197 99 7 90
1980010S20043 1980 7 SI MM NOT_NAMED 1980-01-12 06:00:00 TS -20.3000 51.0000 29 1000 reunion main 232 232 _____O________ -1 -20.3000 51.0000 2 29 1000 9.90000 8 79
1980010S20043 1980 7 SI MM NOT_NAMED 1980-01-12 09:00:00 TS -20.1751 51.4924 main 282 282 _____P________ -1 -20.1751 51.4924 2 10 67
1980010S20043 1980 7 SI MM NOT_NAMED 1980-01-12 12:00:00 NR -19.9000 52.0000 reunion main 320 320 _____O________ -1 -19.9000 52.0000 99 9.90000 11 52
1980010S20043 1980 7 SI MM NOT_NAMED 1980-01-12 15:00:00 NR -19.4750 52.4527 main 333 333 _____P________ -1 -19.4750 52.4527 99 13 37
1980010S20043 1980 7 SI MM NOT_NAMED 1980-01-12 18:00:00 NR -18.9000 52.8000 reunion main 351 351 _____O________ -1 -18.9000 52.8000 99 9.90000 14 23
1980010S20043 1980 7 SI MM NOT_NAMED 1980-01-12 21:00:00 NR -18.2374 53.0174 main 373 351 _____P________ -1 -18.2374 53.0174 99 14 12
1980010S20043 1980 7 SI MM NOT_NAMED 1980-01-13 00:00:00 NR -17.5000 53.1000 reunion main 351 318 _____O________ -1 -17.5000 53.1000 99 9.90000 15 2
1980010S20043 1980 7 SI MM NOT_NAMED 1980-01-13 03:00:00 NR -16.7501 53.0773 main 318 276 _____P________ -1 -16.7501 53.0773 99 15 356
1980010S20043 1980 7 SI MM NOT_NAMED 1980-01-13 06:00:00 TS -16.0000 53.0000 reunion main 276 _____O________ -1 -16.0000 53.0000 6 9.90000 15 354

About IBTrACS Database

This database is a web-friendly format of International Best Track Archive for Climate Stewardship (IBTrACS), a global best track data archive curated by NOAA dating back to 1842.

Updated: 2021-12-08